createdAt,value
2018-09-19T00:04:22.845Z,77.57
2018-09-19T00:09:16.081Z,77.72
2018-09-19T00:14:09.924Z,77.58
2018-09-19T00:19:03.143Z,77.13
2018-09-19T00:23:56.216Z,76.59
2018-09-19T00:28:49.280Z,76.54
2018-09-19T00:33:42.368Z,75.87
2018-09-19T00:38:35.659Z,76.64
2018-09-19T00:43:29.664Z,75.73
2018-09-19T00:48:22.733Z,75.72
2018-09-19T00:53:15.937Z,74.35
2018-09-19T00:58:09.039Z,75.01
2018-09-19T01:03:02.168Z,74.17
2018-09-19T01:07:55.367Z,74.64
2018-09-19T01:12:48.450Z,74.67
2018-09-19T01:17:41.554Z,74.33
2018-09-19T01:22:34.585Z,73.81
2018-09-19T01:27:27.722Z,74.14
2018-09-19T01:32:20.757Z,73.81
2018-09-19T01:37:13.808Z,75.02
2018-09-19T01:42:07.136Z,75.09
2018-09-19T01:47:00.429Z,74.37
2018-09-19T01:51:54.471Z,74.58
2018-09-19T01:56:47.727Z,74.10
2018-09-19T02:01:40.874Z,73.94
2018-09-19T02:06:33.994Z,74.23
2018-09-19T02:11:27.182Z,73.91
2018-09-19T02:16:22.612Z,74.16
2018-09-19T02:21:15.809Z,74.76
2018-09-19T02:26:08.833Z,75.07
2018-09-19T02:31:01.867Z,74.16
2018-09-19T02:35:55.078Z,73.90
2018-09-19T02:40:48.497Z,73.19
2018-09-19T02:45:41.567Z,71.56
2018-09-19T02:50:34.596Z,70.73
2018-09-19T02:55:27.734Z,71.05
2018-09-19T03:00:21.008Z,72.14
2018-09-19T03:05:14.262Z,72.12
2018-09-19T03:10:07.395Z,72.00
2018-09-19T03:15:00.543Z,72.57
2018-09-19T03:19:53.705Z,71.49
2018-09-19T03:24:46.880Z,72.35
2018-09-19T03:29:39.972Z,72.73
2018-09-19T03:34:33.146Z,72.48
2018-09-19T03:39:26.302Z,72.99
2018-09-19T03:44:19.219Z,72.29
2018-09-19T03:49:12.386Z,73.25
2018-09-19T03:54:05.618Z,73.68
2018-09-19T03:58:59.435Z,73.23
2018-09-19T04:03:53.518Z,73.26
2018-09-19T04:08:47.354Z,73.27
2018-09-19T04:13:41.180Z,73.66
2018-09-19T04:18:34.956Z,73.58
2018-09-19T04:23:29.506Z,74.01
2018-09-19T04:28:24.480Z,72.91
2018-09-19T04:33:17.618Z,73.63
2018-09-19T04:38:12.702Z,73.48
2018-09-19T04:43:08.006Z,72.91
2018-09-19T04:48:06.276Z,72.83
2018-09-19T04:53:00.724Z,72.97
2018-09-19T04:57:59.797Z,71.79
2018-09-19T05:02:57.401Z,71.12
2018-09-19T05:07:51.108Z,71.91
2018-09-19T05:12:45.599Z,70.92
2018-09-19T05:17:39.995Z,71.47
2018-09-19T05:22:38.310Z,71.07
2018-09-19T05:27:33.932Z,70.87
2018-09-19T05:32:30.203Z,70.80
2018-09-19T05:37:24.301Z,71.29
2018-09-19T05:42:17.852Z,70.20
2018-09-19T05:47:11.595Z,69.91
2018-09-19T05:52:08.651Z,70.53
2018-09-19T05:57:02.975Z,69.76
2018-09-19T06:01:57.487Z,70.21
2018-09-19T06:06:53.442Z,69.82
2018-09-19T06:11:47.767Z,69.22
2018-09-19T06:16:41.293Z,69.52
2018-09-19T06:21:35.860Z,68.69
2018-09-19T06:26:33.346Z,67.96
2018-09-19T06:31:29.003Z,67.80
2018-09-19T06:36:22.816Z,68.05
2018-09-19T06:41:16.854Z,66.84
2018-09-19T06:46:14.963Z,66.06
2018-09-19T06:51:09.614Z,64.42
2018-09-19T06:56:03.754Z,63.65
2018-09-19T07:00:56.884Z,63.05
2018-09-19T07:05:51.617Z,62.38
2018-09-19T07:10:46.187Z,63.13
2018-09-19T07:15:39.839Z,64.41
2018-09-19T07:20:33.148Z,63.41
2018-09-19T07:25:28.915Z,60.56
2018-09-19T07:30:24.824Z,61.32
2018-09-19T07:35:22.421Z,60.87
2018-09-19T07:40:15.761Z,58.68
2018-09-19T07:45:12.033Z,59.81
2018-09-19T07:50:05.639Z,59.54
2018-09-19T07:54:59.097Z,58.75
2018-09-19T07:59:56.365Z,57.87
2018-09-19T08:04:50.298Z,57.56
2018-09-19T08:09:44.296Z,53.75
2018-09-19T08:14:37.907Z,56.33
2018-09-19T08:19:32.740Z,53.87
2018-09-19T08:24:26.548Z,55.57
2018-09-19T08:29:19.759Z,55.30
2018-09-19T08:34:13.720Z,53.99
2018-09-19T08:39:08.705Z,54.80
2018-09-19T08:44:02.296Z,52.73
2018-09-19T08:48:55.424Z,53.63
2018-09-19T08:53:53.514Z,52.95
2018-09-19T08:58:47.295Z,55.88
2018-09-19T09:03:40.831Z,53.26
2018-09-19T09:08:35.453Z,52.74
2018-09-19T09:13:29.639Z,52.72
2018-09-19T09:18:23.877Z,52.24
2018-09-19T09:23:18.285Z,51.69
2018-09-19T09:28:18.833Z,51.94
2018-09-19T09:33:12.218Z,50.72
2018-09-19T09:38:07.412Z,49.97
2018-09-19T09:43:00.585Z,50.69
2018-09-19T09:47:55.006Z,48.19
2018-09-19T09:52:49.595Z,50.76
2018-09-19T09:57:42.818Z,48.04
2018-09-19T10:02:40.110Z,46.95
2018-09-19T10:07:35.518Z,47.34
2018-09-19T10:12:29.270Z,45.85
2018-09-19T10:17:23.250Z,45.48
2018-09-19T10:22:16.771Z,44.15
2018-09-19T10:27:10.979Z,44.21
2018-09-19T10:32:04.203Z,43.33
2018-09-19T10:36:57.294Z,43.17
2018-09-19T10:41:50.692Z,42.93
2018-09-19T10:46:44.531Z,44.81
2018-09-19T10:51:40.428Z,42.42
2018-09-19T10:56:34.307Z,43.46
2018-09-19T11:01:27.645Z,42.10
2018-09-19T11:06:20.994Z,40.34
2018-09-19T11:11:14.187Z,45.01
2018-09-19T11:16:14.956Z,42.94
2018-09-19T11:21:09.340Z,39.92
2018-09-19T11:26:06.602Z,39.02
2018-09-19T11:31:01.592Z,39.90
2018-09-19T11:36:00.714Z,42.50
2018-09-19T11:40:55.947Z,38.85
2018-09-19T11:45:54.060Z,39.54
2018-09-19T11:50:48.351Z,39.05
2018-09-19T11:55:45.267Z,38.81
2018-09-19T12:00:42.377Z,38.75
2018-09-19T12:05:36.739Z,40.41
2018-09-19T12:10:31.099Z,38.72
2018-09-19T12:15:24.968Z,39.60
2018-09-19T12:20:19.680Z,38.77
2018-09-19T12:25:17.688Z,41.09
2018-09-19T12:30:13.988Z,39.86
2018-09-19T12:35:07.070Z,39.21
2018-09-19T12:40:00.454Z,39.81
2018-09-19T12:44:54.101Z,40.50
2018-09-19T12:49:48.594Z,41.70
2018-09-19T12:54:41.785Z,42.82
2018-09-19T12:59:35.327Z,42.78
2018-09-19T13:04:31.556Z,43.03
2018-09-19T13:09:24.694Z,42.35
2018-09-19T13:14:18.934Z,43.69
2018-09-19T13:19:18.099Z,43.22
2018-09-19T13:24:11.939Z,43.13
2018-09-19T13:29:05.724Z,45.05
2018-09-19T13:33:59.589Z,43.21
2018-09-19T13:38:52.838Z,44.27
2018-09-19T13:43:46.732Z,44.55
2018-09-19T13:48:42.645Z,43.76
2018-09-19T13:53:36.431Z,43.98
2018-09-19T13:58:30.496Z,44.59
2018-09-19T14:03:24.541Z,44.82
2018-09-19T14:08:21.723Z,45.41
2018-09-19T14:13:16.336Z,45.41
2018-09-19T14:18:17.404Z,46.03
2018-09-19T14:23:13.655Z,45.75
2018-09-19T14:28:07.500Z,46.02
2018-09-19T14:33:05.678Z,46.88
2018-09-19T14:38:06.278Z,45.81
2018-09-19T14:43:02.123Z,46.79
2018-09-19T14:48:00.256Z,46.56
2018-09-19T14:52:55.217Z,48.59
2018-09-19T14:57:49.064Z,47.61
2018-09-19T15:02:42.375Z,48.39
2018-09-19T15:07:36.416Z,48.22
2018-09-19T15:12:30.531Z,49.56
2018-09-19T15:17:29.516Z,49.39
2018-09-19T15:22:27.041Z,49.59
2018-09-19T15:32:24.236Z,50.15
2018-09-19T15:37:22.236Z,50.44
2018-09-19T15:42:19.684Z,50.86
2018-09-19T15:47:13.808Z,50.97
2018-09-19T15:52:08.793Z,51.84
2018-09-19T15:57:04.308Z,51.79
2018-09-19T16:02:02.661Z,52.30
2018-09-19T16:06:57.566Z,52.54
2018-09-19T16:11:55.992Z,52.90
2018-09-19T16:16:49.359Z,53.79
2018-09-19T16:21:48.624Z,54.47
2018-09-19T16:26:41.965Z,53.65
2018-09-19T16:31:36.044Z,54.22
2018-09-19T16:36:29.966Z,54.49
2018-09-19T16:41:23.336Z,54.99
2018-09-19T16:46:18.107Z,56.14
2018-09-19T16:51:13.532Z,56.93
2018-09-19T16:56:06.739Z,57.42
2018-09-19T17:01:00.339Z,57.91
2018-09-19T17:05:54.775Z,58.51
2018-09-19T17:10:47.938Z,59.38
2018-09-19T17:15:43.143Z,60.29
2018-09-19T17:20:36.779Z,61.46
2018-09-19T17:25:30.414Z,63.48
2018-09-19T17:30:23.457Z,63.98
2018-09-19T17:35:18.766Z,64.78
2018-09-19T17:40:12.549Z,65.18
2018-09-19T17:45:05.707Z,65.73
2018-09-19T17:49:58.771Z,66.06
2018-09-19T17:54:52.943Z,66.76
2018-09-19T17:59:46.036Z,67.29
2018-09-19T18:04:40.039Z,67.54
2018-09-19T18:09:33.294Z,68.07
2018-09-19T18:14:26.362Z,68.39
2018-09-19T18:19:19.327Z,68.64
2018-09-19T18:24:12.639Z,68.77
2018-09-19T18:29:06.242Z,69.34
2018-09-19T18:33:59.566Z,69.78
2018-09-19T18:38:53.237Z,70.01
2018-09-19T18:43:46.565Z,70.22
2018-09-19T18:48:39.854Z,70.06
2018-09-19T18:53:33.064Z,70.38
2018-09-19T18:58:33.644Z,71.19
2018-09-19T19:03:27.095Z,71.59
2018-09-19T19:08:23.849Z,72.92
2018-09-19T19:13:17.130Z,73.80
2018-09-19T19:18:10.174Z,73.79
2018-09-19T19:23:03.768Z,74.57
2018-09-19T19:27:56.847Z,74.47
2018-09-19T19:32:49.947Z,74.77
2018-09-19T19:37:43.029Z,74.96
2018-09-19T19:42:36.525Z,75.19
2018-09-19T19:47:29.582Z,75.20
2018-09-19T19:52:22.656Z,74.88
2018-09-19T19:57:15.874Z,75.03
2018-09-19T20:02:09.183Z,76.27
2018-09-19T20:07:04.779Z,76.26
2018-09-19T20:11:57.932Z,76.18
2018-09-19T20:16:50.967Z,75.65
2018-09-19T20:21:44.073Z,75.68
2018-09-19T20:26:37.078Z,76.04
2018-09-19T20:31:30.130Z,76.07
2018-09-19T20:36:34.547Z,75.84
2018-09-19T20:41:30.905Z,76.51
2018-09-19T20:46:30.336Z,77.26
2018-09-19T21:01:36.659Z,77.25
2018-09-19T21:11:38.322Z,77.08
2018-09-19T21:21:52.059Z,77.91
2018-09-19T21:31:50.750Z,79.97
2018-09-19T21:36:43.780Z,79.38
2018-09-19T21:41:37.182Z,79.23
2018-09-19T21:46:30.366Z,79.84
2018-09-19T21:51:23.982Z,80.97
2018-09-19T21:56:17.176Z,81.42
2018-09-19T22:01:11.042Z,81.24
2018-09-19T22:06:04.165Z,81.03
2018-09-19T22:10:57.392Z,81.40
2018-09-19T22:15:50.368Z,81.48
2018-09-19T22:20:43.680Z,81.89
2018-09-19T22:25:36.618Z,81.42
2018-09-19T22:30:29.667Z,82.03
2018-09-19T22:35:22.675Z,81.83
2018-09-19T22:40:15.691Z,82.75
2018-09-19T22:45:08.735Z,83.30
2018-09-19T22:50:01.857Z,82.76
2018-09-19T22:54:54.895Z,83.62
2018-09-19T22:59:48.084Z,83.54
2018-09-19T23:04:41.191Z,83.44
2018-09-19T23:09:34.394Z,84.32
2018-09-19T23:14:27.459Z,85.09
2018-09-19T23:19:20.495Z,84.56
2018-09-19T23:24:13.558Z,85.24
2018-09-19T23:29:06.944Z,84.56
2018-09-19T23:34:00.096Z,85.14
2018-09-19T23:38:53.202Z,84.80
2018-09-19T23:43:46.259Z,84.92
2018-09-19T23:48:39.411Z,84.75
2018-09-19T23:53:32.474Z,84.18
2018-09-19T23:58:25.499Z,84.49
